sensor_id;sensor_type;location;lat;lon;timestamp;temperature;humidity
36670;DHT22;22662;47.412;9.742;2022-11-13T00:02:23;6.30;99.90
36670;DHT22;22662;47.412;9.742;2022-11-13T00:04:48;6.20;99.90
36670;DHT22;22662;47.412;9.742;2022-11-13T00:07:14;6.30;99.90
36670;DHT22;22662;47.412;9.742;2022-11-13T00:09:39;6.30;99.90
36670;DHT22;22662;47.412;9.742;2022-11-13T00:12:05;6.40;99.90
36670;DHT22;22662;47.412;9.742;2022-11-13T00:14:30;6.40;99.90
36670;DHT22;22662;47.412;9.742;2022-11-13T00:16:56;6.40;99.90
36670;DHT22;22662;47.412;9.742;2022-11-13T00:19:22;6.30;99.90
36670;DHT22;22662;47.412;9.742;2022-11-13T00:21:48;6.30;99.90
36670;DHT22;22662;47.412;9.742;2022-11-13T00:24:13;6.20;99.90
36670;DHT22;22662;47.412;9.742;2022-11-13T00:26:39;6.10;99.90
36670;DHT22;22662;47.412;9.742;2022-11-13T00:29:04;6.20;99.90
36670;DHT22;22662;47.412;9.742;2022-11-13T00:31:30;6.10;99.90
36670;DHT22;22662;47.412;9.742;2022-11-13T00:33:56;6.10;99.90
36670;DHT22;22662;47.412;9.742;2022-11-13T00:36:23;6.10;99.90
36670;DHT22;22662;47.412;9.742;2022-11-13T00:38:49;6.20;99.90
36670;DHT22;22662;47.412;9.742;2022-11-13T00:41:15;6.10;99.90
36670;DHT22;22662;47.412;9.742;2022-11-13T00:43:40;6.20;99.90
36670;DHT22;22662;47.412;9.742;2022-11-13T00:46:06;6.20;99.90
36670;DHT22;22662;47.412;9.742;2022-11-13T00:48:32;6.20;99.90
36670;DHT22;22662;47.412;9.742;2022-11-13T00:50:57;6.10;99.90
36670;DHT22;22662;47.412;9.742;2022-11-13T00:53:23;6.20;99.90
36670;DHT22;22662;47.412;9.742;2022-11-13T00:55:50;6.30;99.90
36670;DHT22;22662;47.412;9.742;2022-11-13T00:58:16;6.20;99.90
36670;DHT22;22662;47.412;9.742;2022-11-13T01:00:42;6.20;99.90
36670;DHT22;22662;47.412;9.742;2022-11-13T01:03:08;6.20;99.90
36670;DHT22;22662;47.412;9.742;2022-11-13T01:05:38;6.20;99.90
36670;DHT22;22662;47.412;9.742;2022-11-13T01:08:04;6.20;99.90
36670;DHT22;22662;47.412;9.742;2022-11-13T01:10:30;6.10;99.90
36670;DHT22;22662;47.412;9.742;2022-11-13T01:12:56;6.10;99.90
36670;DHT22;22662;47.412;9.742;2022-11-13T01:15:21;6.10;99.90
36670;DHT22;22662;47.412;9.742;2022-11-13T01:17:47;6.00;99.90
36670;DHT22;22662;47.412;9.742;2022-11-13T01:20:12;6.00;99.90
36670;DHT22;22662;47.412;9.742;2022-11-13T01:22:38;6.00;99.90
36670;DHT22;22662;47.412;9.742;2022-11-13T01:25:04;6.00;99.90
36670;DHT22;22662;47.412;9.742;2022-11-13T01:27:30;6.00;99.90
36670;DHT22;22662;47.412;9.742;2022-11-13T01:29:55;6.00;99.90
36670;DHT22;22662;47.412;9.742;2022-11-13T01:32:21;6.00;99.90
36670;DHT22;22662;47.412;9.742;2022-11-13T01:34:46;6.00;99.90
36670;DHT22;22662;47.412;9.742;2022-11-13T01:37:12;6.00;99.90
36670;DHT22;22662;47.412;9.742;2022-11-13T01:39:37;5.90;99.90
36670;DHT22;22662;47.412;9.742;2022-11-13T01:42:03;5.90;99.90
36670;DHT22;22662;47.412;9.742;2022-11-13T01:47:30;5.80;99.90
36670;DHT22;22662;47.412;9.742;2022-11-13T01:49:56;5.80;99.90
36670;DHT22;22662;47.412;9.742;2022-11-13T01:52:26;5.80;99.90
36670;DHT22;22662;47.412;9.742;2022-11-13T01:54:56;5.80;99.90
36670;DHT22;22662;47.412;9.742;2022-11-13T01:57:23;5.70;99.90
36670;DHT22;22662;47.412;9.742;2022-11-13T01:59:50;5.70;99.90
36670;DHT22;22662;47.412;9.742;2022-11-13T02:02:17;5.60;99.90
36670;DHT22;22662;47.412;9.742;2022-11-13T02:04:43;5.60;99.90
36670;DHT22;22662;47.412;9.742;2022-11-13T02:07:09;5.50;99.90
36670;DHT22;22662;47.412;9.742;2022-11-13T02:09:37;5.60;99.90
36670;DHT22;22662;47.412;9.742;2022-11-13T02:12:04;5.60;99.90
36670;DHT22;22662;47.412;9.742;2022-11-13T02:14:30;5.70;99.90
36670;DHT22;22662;47.412;9.742;2022-11-13T02:16:58;5.60;99.90
36670;DHT22;22662;47.412;9.742;2022-11-13T02:19:27;5.60;99.90
36670;DHT22;22662;47.412;9.742;2022-11-13T02:24:20;5.50;99.90
36670;DHT22;22662;47.412;9.742;2022-11-13T02:26:48;5.50;99.90
36670;DHT22;22662;47.412;9.742;2022-11-13T02:29:15;5.40;99.90
36670;DHT22;22662;47.412;9.742;2022-11-13T02:31:40;5.50;99.90
36670;DHT22;22662;47.412;9.742;2022-11-13T02:34:06;5.40;99.90
36670;DHT22;22662;47.412;9.742;2022-11-13T02:36:31;5.50;99.90
36670;DHT22;22662;47.412;9.742;2022-11-13T02:38:58;5.50;99.90
36670;DHT22;22662;47.412;9.742;2022-11-13T02:41:25;5.60;99.90
36670;DHT22;22662;47.412;9.742;2022-11-13T02:43:51;5.60;99.90
36670;DHT22;22662;47.412;9.742;2022-11-13T02:46:16;5.60;99.90
36670;DHT22;22662;47.412;9.742;2022-11-13T02:48:42;5.50;99.90
36670;DHT22;22662;47.412;9.742;2022-11-13T02:51:07;5.50;99.90
36670;DHT22;22662;47.412;9.742;2022-11-13T02:53:33;5.60;99.90
36670;DHT22;22662;47.412;9.742;2022-11-13T02:55:59;5.60;99.90
36670;DHT22;22662;47.412;9.742;2022-11-13T02:58:24;5.60;99.90
36670;DHT22;22662;47.412;9.742;2022-11-13T03:00:50;5.60;99.90
36670;DHT22;22662;47.412;9.742;2022-11-13T03:03:15;5.50;99.90
36670;DHT22;22662;47.412;9.742;2022-11-13T03:05:41;5.50;99.90
36670;DHT22;22662;47.412;9.742;2022-11-13T03:08:07;5.60;99.90
36670;DHT22;22662;47.412;9.742;2022-11-13T03:10:32;5.60;99.90
36670;DHT22;22662;47.412;9.742;2022-11-13T03:12:58;5.60;99.90
36670;DHT22;22662;47.412;9.742;2022-11-13T03:15:23;5.70;99.90
36670;DHT22;22662;47.412;9.742;2022-11-13T03:17:49;5.70;99.90
36670;DHT22;22662;47.412;9.742;2022-11-13T03:20:15;5.70;99.90
36670;DHT22;22662;47.412;9.742;2022-11-13T03:22:40;5.60;99.90
36670;DHT22;22662;47.412;9.742;2022-11-13T03:25:06;5.60;99.90
36670;DHT22;22662;47.412;9.742;2022-11-13T03:27:32;5.50;99.90
36670;DHT22;22662;47.412;9.742;2022-11-13T03:29:57;5.60;99.90
36670;DHT22;22662;47.412;9.742;2022-11-13T03:32:23;5.60;99.90
36670;DHT22;22662;47.412;9.742;2022-11-13T03:34:49;5.60;99.90
36670;DHT22;22662;47.412;9.742;2022-11-13T03:37:14;5.60;99.90
36670;DHT22;22662;47.412;9.742;2022-11-13T03:39:40;5.60;99.90
36670;DHT22;22662;47.412;9.742;2022-11-13T03:42:06;5.50;99.90
36670;DHT22;22662;47.412;9.742;2022-11-13T03:44:31;5.50;99.90
36670;DHT22;22662;47.412;9.742;2022-11-13T03:46:57;5.40;99.90
36670;DHT22;22662;47.412;9.742;2022-11-13T03:49:22;5.40;99.90
36670;DHT22;22662;47.412;9.742;2022-11-13T03:51:48;5.40;99.90
36670;DHT22;22662;47.412;9.742;2022-11-13T03:54:14;5.50;99.90
36670;DHT22;22662;47.412;9.742;2022-11-13T03:56:39;5.50;99.90
36670;DHT22;22662;47.412;9.742;2022-11-13T03:59:05;5.50;99.90
36670;DHT22;22662;47.412;9.742;2022-11-13T04:01:30;5.50;99.90
36670;DHT22;22662;47.412;9.742;2022-11-13T04:03:56;5.50;99.90
36670;DHT22;22662;47.412;9.742;2022-11-13T04:06:21;5.40;99.90
36670;DHT22;22662;47.412;9.742;2022-11-13T04:08:48;5.50;99.90
36670;DHT22;22662;47.412;9.742;2022-11-13T04:11:13;5.50;99.90
36670;DHT22;22662;47.412;9.742;2022-11-13T04:13:39;5.50;99.90
36670;DHT22;22662;47.412;9.742;2022-11-13T04:16:04;5.60;99.90
36670;DHT22;22662;47.412;9.742;2022-11-13T04:18:30;5.50;99.90
36670;DHT22;22662;47.412;9.742;2022-11-13T04:20:59;5.60;99.90
36670;DHT22;22662;47.412;9.742;2022-11-13T04:23:25;5.60;99.90
36670;DHT22;22662;47.412;9.742;2022-11-13T04:25:50;5.60;99.90
36670;DHT22;22662;47.412;9.742;2022-11-13T04:28:16;5.60;99.90
36670;DHT22;22662;47.412;9.742;2022-11-13T04:30:41;5.60;99.90
36670;DHT22;22662;47.412;9.742;2022-11-13T04:33:07;5.60;99.90
36670;DHT22;22662;47.412;9.742;2022-11-13T04:35:33;5.70;99.90
36670;DHT22;22662;47.412;9.742;2022-11-13T04:37:58;5.70;99.90
36670;DHT22;22662;47.412;9.742;2022-11-13T04:40:24;5.80;99.90
36670;DHT22;22662;47.412;9.742;2022-11-13T04:42:50;5.80;99.90
36670;DHT22;22662;47.412;9.742;2022-11-13T04:45:19;5.80;99.90
36670;DHT22;22662;47.412;9.742;2022-11-13T04:47:45;5.80;99.90
36670;DHT22;22662;47.412;9.742;2022-11-13T04:50:10;5.80;99.90
36670;DHT22;22662;47.412;9.742;2022-11-13T04:52:36;5.80;99.90
36670;DHT22;22662;47.412;9.742;2022-11-13T04:55:02;5.70;99.90
36670;DHT22;22662;47.412;9.742;2022-11-13T04:57:28;5.60;99.90
36670;DHT22;22662;47.412;9.742;2022-11-13T04:59:54;5.70;99.90
36670;DHT22;22662;47.412;9.742;2022-11-13T05:02:19;5.70;99.90
36670;DHT22;22662;47.412;9.742;2022-11-13T05:04:45;5.60;99.90
36670;DHT22;22662;47.412;9.742;2022-11-13T05:07:10;5.60;99.90
36670;DHT22;22662;47.412;9.742;2022-11-13T05:09:36;5.60;99.90
36670;DHT22;22662;47.412;9.742;2022-11-13T05:12:02;5.50;99.90
36670;DHT22;22662;47.412;9.742;2022-11-13T05:14:29;5.60;99.90
36670;DHT22;22662;47.412;9.742;2022-11-13T05:16:54;5.40;99.90
36670;DHT22;22662;47.412;9.742;2022-11-13T05:19:20;5.30;99.90
36670;DHT22;22662;47.412;9.742;2022-11-13T05:21:45;5.30;99.90
36670;DHT22;22662;47.412;9.742;2022-11-13T05:24:11;5.30;99.90
36670;DHT22;22662;47.412;9.742;2022-11-13T05:26:37;5.20;99.90
36670;DHT22;22662;47.412;9.742;2022-11-13T05:29:03;5.20;99.90
36670;DHT22;22662;47.412;9.742;2022-11-13T05:31:29;5.30;99.90
36670;DHT22;22662;47.412;9.742;2022-11-13T05:33:54;5.20;99.90
36670;DHT22;22662;47.412;9.742;2022-11-13T05:36:20;5.30;99.90
36670;DHT22;22662;47.412;9.742;2022-11-13T05:38:46;5.30;99.90
36670;DHT22;22662;47.412;9.742;2022-11-13T05:41:12;5.40;99.90
36670;DHT22;22662;47.412;9.742;2022-11-13T05:43:38;5.40;99.90
36670;DHT22;22662;47.412;9.742;2022-11-13T05:46:06;5.50;99.90
36670;DHT22;22662;47.412;9.742;2022-11-13T05:48:32;5.50;99.90
36670;DHT22;22662;47.412;9.742;2022-11-13T05:51:02;5.50;99.90
36670;DHT22;22662;47.412;9.742;2022-11-13T05:53:28;5.50;99.90
36670;DHT22;22662;47.412;9.742;2022-11-13T05:55:53;5.50;99.90
36670;DHT22;22662;47.412;9.742;2022-11-13T05:58:19;5.50;99.90
36670;DHT22;22662;47.412;9.742;2022-11-13T06:00:45;5.50;99.90
36670;DHT22;22662;47.412;9.742;2022-11-13T06:03:10;5.40;99.90
36670;DHT22;22662;47.412;9.742;2022-11-13T06:05:36;5.40;99.90
36670;DHT22;22662;47.412;9.742;2022-11-13T06:08:01;5.40;99.90
36670;DHT22;22662;47.412;9.742;2022-11-13T06:10:27;5.40;99.90
36670;DHT22;22662;47.412;9.742;2022-11-13T06:12:53;5.40;99.90
36670;DHT22;22662;47.412;9.742;2022-11-13T06:15:19;5.50;99.90
36670;DHT22;22662;47.412;9.742;2022-11-13T06:17:44;5.50;99.90
36670;DHT22;22662;47.412;9.742;2022-11-13T06:20:11;5.60;99.90
36670;DHT22;22662;47.412;9.742;2022-11-13T06:22:36;5.60;99.90
36670;DHT22;22662;47.412;9.742;2022-11-13T06:25:02;5.50;99.90
36670;DHT22;22662;47.412;9.742;2022-11-13T06:27:28;5.60;99.90
36670;DHT22;22662;47.412;9.742;2022-11-13T06:29:53;5.70;99.90
36670;DHT22;22662;47.412;9.742;2022-11-13T06:32:19;5.70;99.90
36670;DHT22;22662;47.412;9.742;2022-11-13T06:34:45;5.70;99.90
36670;DHT22;22662;47.412;9.742;2022-11-13T06:37:10;5.60;99.90
36670;DHT22;22662;47.412;9.742;2022-11-13T06:39:36;5.60;99.90
36670;DHT22;22662;47.412;9.742;2022-11-13T06:42:01;5.60;99.90
36670;DHT22;22662;47.412;9.742;2022-11-13T06:44:28;5.70;99.90
36670;DHT22;22662;47.412;9.742;2022-11-13T06:46:53;5.60;99.90
36670;DHT22;22662;47.412;9.742;2022-11-13T06:49:19;5.60;99.90
36670;DHT22;22662;47.412;9.742;2022-11-13T06:51:44;5.50;99.90
36670;DHT22;22662;47.412;9.742;2022-11-13T06:54:10;5.50;99.90
36670;DHT22;22662;47.412;9.742;2022-11-13T06:56:36;5.50;99.90
36670;DHT22;22662;47.412;9.742;2022-11-13T06:59:02;5.40;99.90
36670;DHT22;22662;47.412;9.742;2022-11-13T07:01:28;5.40;99.90
36670;DHT22;22662;47.412;9.742;2022-11-13T07:03:54;5.50;99.90
36670;DHT22;22662;47.412;9.742;2022-11-13T07:06:20;5.50;99.90
36670;DHT22;22662;47.412;9.742;2022-11-13T07:08:46;5.50;99.90
36670;DHT22;22662;47.412;9.742;2022-11-13T07:11:13;5.50;99.90
36670;DHT22;22662;47.412;9.742;2022-11-13T07:13:39;5.50;99.90
36670;DHT22;22662;47.412;9.742;2022-11-13T07:16:06;5.60;99.90
36670;DHT22;22662;47.412;9.742;2022-11-13T07:18:31;5.60;99.90
36670;DHT22;22662;47.412;9.742;2022-11-13T07:20:57;5.60;99.90
36670;DHT22;22662;47.412;9.742;2022-11-13T07:23:23;5.50;99.90
36670;DHT22;22662;47.412;9.742;2022-11-13T07:25:51;5.50;99.90
36670;DHT22;22662;47.412;9.742;2022-11-13T07:28:17;5.50;99.90
36670;DHT22;22662;47.412;9.742;2022-11-13T07:30:42;5.50;99.90
36670;DHT22;22662;47.412;9.742;2022-11-13T07:33:08;5.50;99.90
36670;DHT22;22662;47.412;9.742;2022-11-13T07:35:34;5.60;99.90
36670;DHT22;22662;47.412;9.742;2022-11-13T07:37:59;5.60;99.90
36670;DHT22;22662;47.412;9.742;2022-11-13T07:40:25;5.70;99.90
36670;DHT22;22662;47.412;9.742;2022-11-13T07:43:00;5.70;99.90
36670;DHT22;22662;47.412;9.742;2022-11-13T07:45:26;5.70;99.90
36670;DHT22;22662;47.412;9.742;2022-11-13T07:47:58;5.80;99.90
36670;DHT22;22662;47.412;9.742;2022-11-13T07:50:25;5.80;99.90
36670;DHT22;22662;47.412;9.742;2022-11-13T07:52:53;5.70;99.90
36670;DHT22;22662;47.412;9.742;2022-11-13T07:55:19;5.80;99.90
36670;DHT22;22662;47.412;9.742;2022-11-13T07:57:45;5.80;99.90
36670;DHT22;22662;47.412;9.742;2022-11-13T08:00:10;5.90;99.90
36670;DHT22;22662;47.412;9.742;2022-11-13T08:02:36;5.80;99.90
36670;DHT22;22662;47.412;9.742;2022-11-13T08:05:02;5.80;99.90
36670;DHT22;22662;47.412;9.742;2022-11-13T08:07:27;5.80;99.90
36670;DHT22;22662;47.412;9.742;2022-11-13T08:09:53;5.90;99.90
36670;DHT22;22662;47.412;9.742;2022-11-13T08:12:18;5.90;99.90
36670;DHT22;22662;47.412;9.742;2022-11-13T08:14:44;5.90;99.90
36670;DHT22;22662;47.412;9.742;2022-11-13T08:17:09;5.90;99.90
36670;DHT22;22662;47.412;9.742;2022-11-13T08:19:35;5.90;99.90
36670;DHT22;22662;47.412;9.742;2022-11-13T08:22:00;6.10;99.90
36670;DHT22;22662;47.412;9.742;2022-11-13T08:24:26;6.00;99.90
36670;DHT22;22662;47.412;9.742;2022-11-13T08:26:51;6.00;99.90
36670;DHT22;22662;47.412;9.742;2022-11-13T08:29:17;6.00;99.90
36670;DHT22;22662;47.412;9.742;2022-11-13T08:31:43;6.10;99.90
36670;DHT22;22662;47.412;9.742;2022-11-13T08:34:08;6.20;99.90
36670;DHT22;22662;47.412;9.742;2022-11-13T08:36:34;6.20;99.90
36670;DHT22;22662;47.412;9.742;2022-11-13T08:38:59;6.30;99.90
36670;DHT22;22662;47.412;9.742;2022-11-13T08:41:25;6.30;99.90
36670;DHT22;22662;47.412;9.742;2022-11-13T08:43:50;6.30;99.90
36670;DHT22;22662;47.412;9.742;2022-11-13T08:46:16;6.20;99.90
36670;DHT22;22662;47.412;9.742;2022-11-13T08:48:42;6.20;99.90
36670;DHT22;22662;47.412;9.742;2022-11-13T08:51:07;6.20;99.90
36670;DHT22;22662;47.412;9.742;2022-11-13T08:53:33;6.30;99.90
36670;DHT22;22662;47.412;9.742;2022-11-13T08:55:59;6.20;99.90
36670;DHT22;22662;47.412;9.742;2022-11-13T08:58:26;6.30;99.90
36670;DHT22;22662;47.412;9.742;2022-11-13T09:00:51;6.40;99.90
36670;DHT22;22662;47.412;9.742;2022-11-13T09:03:17;6.50;99.90
36670;DHT22;22662;47.412;9.742;2022-11-13T09:05:42;6.40;99.90
36670;DHT22;22662;47.412;9.742;2022-11-13T09:08:08;6.20;99.90
36670;DHT22;22662;47.412;9.742;2022-11-13T09:10:35;6.20;99.90
36670;DHT22;22662;47.412;9.742;2022-11-13T09:13:02;6.20;99.90
36670;DHT22;22662;47.412;9.742;2022-11-13T09:15:28;6.10;99.90
36670;DHT22;22662;47.412;9.742;2022-11-13T09:17:55;6.10;99.90
36670;DHT22;22662;47.412;9.742;2022-11-13T09:20:20;6.20;99.90
36670;DHT22;22662;47.412;9.742;2022-11-13T09:22:46;6.30;99.90
36670;DHT22;22662;47.412;9.742;2022-11-13T09:25:12;6.30;99.90
36670;DHT22;22662;47.412;9.742;2022-11-13T09:27:37;6.40;99.90
36670;DHT22;22662;47.412;9.742;2022-11-13T09:30:03;6.40;99.90
36670;DHT22;22662;47.412;9.742;2022-11-13T09:32:28;6.50;99.90
36670;DHT22;22662;47.412;9.742;2022-11-13T09:34:54;6.40;99.90
36670;DHT22;22662;47.412;9.742;2022-11-13T09:37:19;6.30;99.90
36670;DHT22;22662;47.412;9.742;2022-11-13T09:39:45;6.30;99.90
36670;DHT22;22662;47.412;9.742;2022-11-13T09:42:18;6.30;99.90
36670;DHT22;22662;47.412;9.742;2022-11-13T09:44:53;6.30;99.90
36670;DHT22;22662;47.412;9.742;2022-11-13T09:49:50;6.30;99.90
36670;DHT22;22662;47.412;9.742;2022-11-13T09:52:34;6.30;99.90
36670;DHT22;22662;47.412;9.742;2022-11-13T09:55:00;6.20;99.90
36670;DHT22;22662;47.412;9.742;2022-11-13T09:57:39;6.30;99.90
36670;DHT22;22662;47.412;9.742;2022-11-13T10:02:44;6.50;99.90
36670;DHT22;22662;47.412;9.742;2022-11-13T10:05:22;6.50;99.90
36670;DHT22;22662;47.412;9.742;2022-11-13T10:10:43;6.40;99.90
36670;DHT22;22662;47.412;9.742;2022-11-13T10:13:09;6.50;99.90
36670;DHT22;22662;47.412;9.742;2022-11-13T10:15:36;6.50;99.90
36670;DHT22;22662;47.412;9.742;2022-11-13T10:18:04;6.30;99.90
36670;DHT22;22662;47.412;9.742;2022-11-13T10:20:33;6.20;99.90
36670;DHT22;22662;47.412;9.742;2022-11-13T10:25:27;6.40;99.90
36670;DHT22;22662;47.412;9.742;2022-11-13T10:27:59;6.50;99.90
36670;DHT22;22662;47.412;9.742;2022-11-13T10:30:26;6.50;99.90
36670;DHT22;22662;47.412;9.742;2022-11-13T10:32:52;6.50;99.90
36670;DHT22;22662;47.412;9.742;2022-11-13T10:40:30;6.60;99.90
36670;DHT22;22662;47.412;9.742;2022-11-13T10:45:31;6.70;99.90
36670;DHT22;22662;47.412;9.742;2022-11-13T10:47:56;6.80;99.90
36670;DHT22;22662;47.412;9.742;2022-11-13T10:50:26;6.70;99.90
36670;DHT22;22662;47.412;9.742;2022-11-13T10:52:52;6.80;99.90
36670;DHT22;22662;47.412;9.742;2022-11-13T10:58:02;6.60;99.90
36670;DHT22;22662;47.412;9.742;2022-11-13T11:00:29;6.80;99.90
36670;DHT22;22662;47.412;9.742;2022-11-13T11:02:55;6.90;99.90
36670;DHT22;22662;47.412;9.742;2022-11-13T11:05:22;6.80;99.90
36670;DHT22;22662;47.412;9.742;2022-11-13T11:07:48;6.90;99.90
36670;DHT22;22662;47.412;9.742;2022-11-13T11:10:18;6.90;99.90
36670;DHT22;22662;47.412;9.742;2022-11-13T11:12:50;6.90;99.90
36670;DHT22;22662;47.412;9.742;2022-11-13T11:15:35;7.00;99.90
36670;DHT22;22662;47.412;9.742;2022-11-13T11:18:04;6.90;99.90
36670;DHT22;22662;47.412;9.742;2022-11-13T11:22:59;6.90;99.90
36670;DHT22;22662;47.412;9.742;2022-11-13T11:28:03;6.90;99.90
36670;DHT22;22662;47.412;9.742;2022-11-13T11:30:39;6.70;99.90
36670;DHT22;22662;47.412;9.742;2022-11-13T11:33:27;6.70;99.90
36670;DHT22;22662;47.412;9.742;2022-11-13T11:35:56;6.70;99.90
36670;DHT22;22662;47.412;9.742;2022-11-13T11:40:51;6.80;99.90
36670;DHT22;22662;47.412;9.742;2022-11-13T11:45:52;6.90;99.90
36670;DHT22;22662;47.412;9.742;2022-11-13T11:48:22;7.00;99.90
36670;DHT22;22662;47.412;9.742;2022-11-13T11:50:52;7.00;99.90
36670;DHT22;22662;47.412;9.742;2022-11-13T11:53:23;7.00;99.90
36670;DHT22;22662;47.412;9.742;2022-11-13T12:04:05;7.00;99.90
36670;DHT22;22662;47.412;9.742;2022-11-13T12:11:53;7.00;99.90
36670;DHT22;22662;47.412;9.742;2022-11-13T12:22:51;6.80;99.90
36670;DHT22;22662;47.412;9.742;2022-11-13T12:25:22;6.60;99.90
36670;DHT22;22662;47.412;9.742;2022-11-13T12:30:15;6.60;99.90
36670;DHT22;22662;47.412;9.742;2022-11-13T12:32:50;6.60;99.90
36670;DHT22;22662;47.412;9.742;2022-11-13T12:35:21;6.60;99.90
36670;DHT22;22662;47.412;9.742;2022-11-13T12:37:52;6.60;99.90
36670;DHT22;22662;47.412;9.742;2022-11-13T12:45:48;6.30;99.90
36670;DHT22;22662;47.412;9.742;2022-11-13T12:50:40;6.30;99.90
36670;DHT22;22662;47.412;9.742;2022-11-13T12:53:10;6.30;99.90
36670;DHT22;22662;47.412;9.742;2022-11-13T12:55:37;6.50;99.90
36670;DHT22;22662;47.412;9.742;2022-11-13T12:58:10;6.60;99.90
36670;DHT22;22662;47.412;9.742;2022-11-13T13:00:37;6.70;99.90
36670;DHT22;22662;47.412;9.742;2022-11-13T13:10:59;6.70;99.90
36670;DHT22;22662;47.412;9.742;2022-11-13T13:16:23;6.40;99.90
36670;DHT22;22662;47.412;9.742;2022-11-13T13:18:50;6.50;99.90
36670;DHT22;22662;47.412;9.742;2022-11-13T13:21:16;6.40;99.90
36670;DHT22;22662;47.412;9.742;2022-11-13T13:23:49;6.50;99.90
36670;DHT22;22662;47.412;9.742;2022-11-13T13:26:16;6.60;99.90
36670;DHT22;22662;47.412;9.742;2022-11-13T13:28:45;6.70;99.90
36670;DHT22;22662;47.412;9.742;2022-11-13T13:38:37;6.60;99.90
36670;DHT22;22662;47.412;9.742;2022-11-13T13:43:50;6.30;99.90
36670;DHT22;22662;47.412;9.742;2022-11-13T13:46:19;6.30;99.90
36670;DHT22;22662;47.412;9.742;2022-11-13T13:48:46;6.20;99.90
36670;DHT22;22662;47.412;9.742;2022-11-13T13:53:41;6.30;99.90
36670;DHT22;22662;47.412;9.742;2022-11-13T13:56:11;6.30;99.90
36670;DHT22;22662;47.412;9.742;2022-11-13T13:58:37;6.20;99.90
36670;DHT22;22662;47.412;9.742;2022-11-13T14:01:04;6.20;99.90
36670;DHT22;22662;47.412;9.742;2022-11-13T14:03:30;6.30;99.90
36670;DHT22;22662;47.412;9.742;2022-11-13T14:05:56;6.30;99.90
36670;DHT22;22662;47.412;9.742;2022-11-13T14:08:32;6.30;99.90
36670;DHT22;22662;47.412;9.742;2022-11-13T14:10:57;6.40;99.90
36670;DHT22;22662;47.412;9.742;2022-11-13T14:13:27;6.30;99.90
36670;DHT22;22662;47.412;9.742;2022-11-13T14:16:02;6.30;99.90
36670;DHT22;22662;47.412;9.742;2022-11-13T14:18:28;6.30;99.90
36670;DHT22;22662;47.412;9.742;2022-11-13T14:20:55;6.30;99.90
36670;DHT22;22662;47.412;9.742;2022-11-13T14:23:25;6.30;99.90
36670;DHT22;22662;47.412;9.742;2022-11-13T14:25:52;6.30;99.90
36670;DHT22;22662;47.412;9.742;2022-11-13T14:28:19;6.20;99.90
36670;DHT22;22662;47.412;9.742;2022-11-13T14:30:52;6.10;99.90
36670;DHT22;22662;47.412;9.742;2022-11-13T14:33:33;6.00;99.90
36670;DHT22;22662;47.412;9.742;2022-11-13T14:35:59;6.20;99.90
36670;DHT22;22662;47.412;9.742;2022-11-13T14:38:26;6.20;99.90
36670;DHT22;22662;47.412;9.742;2022-11-13T14:40:52;6.10;99.90
36670;DHT22;22662;47.412;9.742;2022-11-13T14:43:22;6.10;99.90
36670;DHT22;22662;47.412;9.742;2022-11-13T14:45:55;6.10;99.90
36670;DHT22;22662;47.412;9.742;2022-11-13T14:48:25;6.10;99.90
36670;DHT22;22662;47.412;9.742;2022-11-13T14:53:30;6.10;99.90
36670;DHT22;22662;47.412;9.742;2022-11-13T14:55:57;6.10;99.90
36670;DHT22;22662;47.412;9.742;2022-11-13T14:58:30;6.10;99.90
36670;DHT22;22662;47.412;9.742;2022-11-13T15:00:56;6.20;99.90
36670;DHT22;22662;47.412;9.742;2022-11-13T15:03:23;6.10;99.90
36670;DHT22;22662;47.412;9.742;2022-11-13T15:05:49;6.10;99.90
36670;DHT22;22662;47.412;9.742;2022-11-13T15:08:14;6.10;99.90
36670;DHT22;22662;47.412;9.742;2022-11-13T15:10:40;6.10;99.90
36670;DHT22;22662;47.412;9.742;2022-11-13T15:13:13;6.10;99.90
36670;DHT22;22662;47.412;9.742;2022-11-13T15:15:38;6.10;99.90
36670;DHT22;22662;47.412;9.742;2022-11-13T15:18:04;6.00;99.90
36670;DHT22;22662;47.412;9.742;2022-11-13T15:20:31;6.00;99.90
36670;DHT22;22662;47.412;9.742;2022-11-13T15:22:57;5.90;99.90
36670;DHT22;22662;47.412;9.742;2022-11-13T15:25:23;6.00;99.90
36670;DHT22;22662;47.412;9.742;2022-11-13T15:27:49;5.90;99.90
36670;DHT22;22662;47.412;9.742;2022-11-13T15:30:15;6.00;99.90
36670;DHT22;22662;47.412;9.742;2022-11-13T15:32:41;6.00;99.90
36670;DHT22;22662;47.412;9.742;2022-11-13T15:35:10;6.00;99.90
36670;DHT22;22662;47.412;9.742;2022-11-13T15:37:37;6.00;99.90
36670;DHT22;22662;47.412;9.742;2022-11-13T15:40:03;6.00;99.90
36670;DHT22;22662;47.412;9.742;2022-11-13T15:42:30;6.00;99.90
36670;DHT22;22662;47.412;9.742;2022-11-13T15:44:56;6.00;99.90
36670;DHT22;22662;47.412;9.742;2022-11-13T15:47:32;6.10;99.90
36670;DHT22;22662;47.412;9.742;2022-11-13T15:49:59;6.10;99.90
36670;DHT22;22662;47.412;9.742;2022-11-13T15:52:25;6.00;99.90
36670;DHT22;22662;47.412;9.742;2022-11-13T15:54:51;6.00;99.90
36670;DHT22;22662;47.412;9.742;2022-11-13T15:57:24;6.00;99.90
36670;DHT22;22662;47.412;9.742;2022-11-13T15:59:50;6.10;99.90
36670;DHT22;22662;47.412;9.742;2022-11-13T16:02:15;6.10;99.90
36670;DHT22;22662;47.412;9.742;2022-11-13T16:04:41;6.00;99.90
36670;DHT22;22662;47.412;9.742;2022-11-13T16:07:13;5.90;99.90
36670;DHT22;22662;47.412;9.742;2022-11-13T16:09:40;5.90;99.90
36670;DHT22;22662;47.412;9.742;2022-11-13T16:12:07;6.00;99.90
36670;DHT22;22662;47.412;9.742;2022-11-13T16:14:33;6.10;99.90
36670;DHT22;22662;47.412;9.742;2022-11-13T16:16:58;6.00;99.90
36670;DHT22;22662;47.412;9.742;2022-11-13T16:19:24;6.00;99.90
36670;DHT22;22662;47.412;9.742;2022-11-13T16:21:50;6.10;99.90
36670;DHT22;22662;47.412;9.742;2022-11-13T16:24:16;6.00;99.90
36670;DHT22;22662;47.412;9.742;2022-11-13T16:26:43;6.00;99.90
36670;DHT22;22662;47.412;9.742;2022-11-13T16:29:18;6.10;99.90
36670;DHT22;22662;47.412;9.742;2022-11-13T16:31:44;6.10;99.90
36670;DHT22;22662;47.412;9.742;2022-11-13T16:34:10;6.10;99.90
36670;DHT22;22662;47.412;9.742;2022-11-13T16:36:35;6.20;99.90
36670;DHT22;22662;47.412;9.742;2022-11-13T16:39:01;6.20;99.90
36670;DHT22;22662;47.412;9.742;2022-11-13T16:41:27;6.20;99.90
36670;DHT22;22662;47.412;9.742;2022-11-13T16:43:54;6.20;99.90
36670;DHT22;22662;47.412;9.742;2022-11-13T16:46:26;6.20;99.90
36670;DHT22;22662;47.412;9.742;2022-11-13T16:48:52;6.20;99.90
36670;DHT22;22662;47.412;9.742;2022-11-13T16:51:18;6.10;99.90
36670;DHT22;22662;47.412;9.742;2022-11-13T16:53:43;6.00;99.90
36670;DHT22;22662;47.412;9.742;2022-11-13T16:56:13;6.00;99.90
36670;DHT22;22662;47.412;9.742;2022-11-13T16:58:39;5.90;99.90
36670;DHT22;22662;47.412;9.742;2022-11-13T17:01:05;6.00;99.90
36670;DHT22;22662;47.412;9.742;2022-11-13T17:03:30;6.00;99.90
36670;DHT22;22662;47.412;9.742;2022-11-13T17:05:56;6.10;99.90
36670;DHT22;22662;47.412;9.742;2022-11-13T17:08:21;6.00;99.90
36670;DHT22;22662;47.412;9.742;2022-11-13T17:10:56;6.10;99.90
36670;DHT22;22662;47.412;9.742;2022-11-13T17:13:22;6.20;99.90
36670;DHT22;22662;47.412;9.742;2022-11-13T17:15:48;6.20;99.90
36670;DHT22;22662;47.412;9.742;2022-11-13T17:18:13;6.20;99.90